Bath, South Carolina
Current Conditions -  °F | °C
As of 1:53 PM on Tuesday 27 Jan 2015 (Local Time) from KDNL Reporting Station
Broken Clouds Broken Clouds  
Wind Chill: 44°   Ceiling: 4900
Heat Index: 49°   Visibility: 10mi
Dew Point: 28°   Wind: 13mph
Humidity: 44%   Direction: 340°NNW
Pressure: 29.89"   Gusts: 21mph
Location:  33.5°N, 81.87°W
Report Text: KDNL 271853Z AUTO 34011G18KT 10SM BKN049 09/M02 A2989 RMK AO2 SLP121 T00941022
Loading
Personal Weather Stations






























Interactive Weather Map New forecast layout! Learn more

10-Day Weather Forecast

Advertisements
Track Severe Weather on mobile